createdAt,value
2022-09-02T00:00:26.535Z,9.7
2022-09-02T00:01:26.588Z,9.67
2022-09-02T00:02:27.023Z,9.6
2022-09-02T00:03:27.585Z,9.59
2022-09-02T00:04:26.761Z,9.56
2022-09-02T00:05:26.476Z,9.56
2022-09-02T00:06:26.458Z,9.57
2022-09-02T00:07:26.462Z,9.53
2022-09-02T00:08:26.743Z,9.56
2022-09-02T00:09:26.424Z,9.57
2022-09-02T00:10:26.671Z,9.55
2022-09-02T00:11:26.401Z,9.53
2022-09-02T00:12:26.378Z,9.55
2022-09-02T00:13:26.313Z,9.44
2022-09-02T00:14:26.358Z,9.55
2022-09-02T00:15:26.608Z,9.5
2022-09-02T00:16:26.513Z,9.53
2022-09-02T00:17:26.321Z,9.45
2022-09-02T00:18:26.312Z,9.48
2022-09-02T00:19:26.039Z,9.5
2022-09-02T00:20:26.285Z,9.47
2022-09-02T00:21:26.546Z,9.45
2022-09-02T00:22:26.265Z,9.48
2022-09-02T00:23:29.801Z,9.52
2022-09-02T00:24:26.491Z,9.53
2022-09-02T00:25:26.480Z,9.5
2022-09-02T00:26:26.214Z,9.41
2022-09-02T00:27:26.199Z,9.44
2022-09-02T00:28:26.336Z,9.41
2022-09-02T00:29:26.432Z,9.5
2022-09-02T00:30:26.166Z,9.38
2022-09-02T00:31:26.332Z,9.39
2022-09-02T00:32:26.398Z,9.39
2022-09-02T00:33:25.952Z,9.35
2022-09-02T00:34:25.865Z,9.41
2022-09-02T00:35:26.359Z,9.48
2022-09-02T00:36:26.352Z,9.37
2022-09-02T00:37:25.823Z,9.41
2022-09-02T00:38:26.321Z,9.44
2022-09-02T00:39:26.311Z,9.39
2022-09-02T00:40:26.236Z,9.27
2022-09-02T00:41:26.284Z,9.39
2022-09-02T00:42:26.286Z,9.32
2022-09-02T00:43:26.158Z,9.27
2022-09-02T00:44:26.244Z,9.38
2022-09-02T00:45:26.431Z,9.35
2022-09-02T00:46:26.251Z,9.32
2022-09-02T00:47:25.955Z,9.39
2022-09-02T00:48:25.943Z,9.29
2022-09-02T00:49:25.926Z,9.19
2022-09-02T00:50:27.721Z,9.23
2022-09-02T00:51:26.167Z,9.27
2022-09-02T00:52:26.251Z,9.27
2022-09-02T00:53:26.329Z,9.29
2022-09-02T00:54:26.675Z,9.19
2022-09-02T00:55:26.115Z,9.27
2022-09-02T00:56:25.583Z,9.19
2022-09-02T00:57:25.831Z,9.17
2022-09-02T00:58:26.072Z,9.2
2022-09-02T00:59:26.062Z,9.23
2022-09-02T01:00:26.049Z,9.21
2022-09-02T01:01:26.185Z,9.17
2022-09-02T01:02:26.235Z,9.16
2022-09-02T01:03:26.021Z,9.2
2022-09-02T01:04:26.005Z,9.2
2022-09-02T01:05:25.734Z,9.11
2022-09-02T01:06:26.179Z,9.19
2022-09-02T01:07:25.708Z,9.14
2022-09-02T01:08:25.441Z,9.16
2022-09-02T01:09:25.428Z,9.16
2022-09-02T01:10:25.670Z,9.17
2022-09-02T01:11:25.663Z,9.11
2022-09-02T01:12:25.637Z,9.05
2022-09-02T01:13:26.505Z,9.05
2022-09-02T01:14:26.762Z,9.09
2022-09-02T01:15:25.353Z,9.11
2022-09-02T01:16:25.827Z,9.03
2022-09-02T01:17:25.838Z,9.04
2022-09-02T01:18:25.824Z,9.09
2022-09-02T01:19:25.561Z,8.97
2022-09-02T01:20:29.060Z,9.05
2022-09-02T01:21:25.277Z,8.97
2022-09-02T01:22:25.770Z,9.01
2022-09-02T01:23:27.581Z,9.01
2022-09-02T01:24:25.242Z,9.08
2022-09-02T01:25:25.740Z,8.98
2022-09-02T01:26:25.468Z,9.03
2022-09-02T01:27:25.461Z,9.04
2022-09-02T01:28:25.734Z,8.92
2022-09-02T01:29:25.438Z,9.14
2022-09-02T01:30:25.679Z,9
2022-09-02T01:31:25.585Z,9.04
2022-09-02T01:32:25.646Z,9.01
2022-09-02T01:33:27.498Z,8.98
2022-09-02T01:34:25.376Z,9.03
2022-09-02T01:35:25.142Z,9
2022-09-02T01:36:25.603Z,9
2022-09-02T01:37:25.076Z,9.01
2022-09-02T01:38:25.575Z,9.08
2022-09-02T01:39:25.558Z,9
2022-09-02T01:40:25.460Z,9
2022-09-02T01:41:25.545Z,8.92
2022-09-02T01:42:25.520Z,9.01
2022-09-02T01:43:25.798Z,8.97
2022-09-02T01:44:25.495Z,8.87
2022-09-02T01:45:25.234Z,8.92
2022-09-02T01:46:25.675Z,8.9
2022-09-02T01:47:24.944Z,8.92
2022-09-02T01:48:26.699Z,8.9
2022-09-02T01:49:24.923Z,8.82
2022-09-02T01:50:25.164Z,8.94
2022-09-02T01:51:25.427Z,8.89
2022-09-02T01:52:25.149Z,8.83
2022-09-02T01:53:25.683Z,8.83
2022-09-02T01:54:25.112Z,8.83
2022-09-02T01:55:24.845Z,8.86
2022-09-02T01:56:25.347Z,8.82
2022-09-02T01:57:25.336Z,8.83
2022-09-02T01:58:25.063Z,8.82
2022-09-02T01:59:25.307Z,8.85
2022-09-02T02:00:25.297Z,8.89
2022-09-02T02:01:25.208Z,8.87
2022-09-02T02:02:25.297Z,8.89
2022-09-02T02:03:25.598Z,8.86
2022-09-02T02:04:27.736Z,8.85
2022-09-02T02:05:24.980Z,8.86
2022-09-02T02:06:24.972Z,8.8
2022-09-02T02:07:25.218Z,8.82
2022-09-02T02:08:24.933Z,8.87
2022-09-02T02:09:24.924Z,8.8
2022-09-02T02:10:25.161Z,8.76
2022-09-02T02:11:24.897Z,8.76
2022-09-02T02:12:25.143Z,8.74
2022-09-02T02:13:25.092Z,8.74
2022-09-02T02:14:24.909Z,8.76
2022-09-02T02:16:25.367Z,8.76
2022-09-02T02:17:24.820Z,8.74
2022-09-02T02:18:25.497Z,8.76
2022-09-02T02:19:24.540Z,8.72
2022-09-02T02:20:25.040Z,8.72
2022-09-02T02:21:25.360Z,8.74
2022-09-02T02:22:25.010Z,8.72
2022-09-02T02:23:25.195Z,8.68
2022-09-02T02:25:24.972Z,8.68
2022-09-02T02:26:24.749Z,8.76
2022-09-02T02:27:24.691Z,8.69
2022-09-02T02:28:24.940Z,8.76
2022-09-02T02:29:24.925Z,8.69
2022-09-02T02:30:24.660Z,8.64
2022-09-02T02:31:25.149Z,8.65
2022-09-02T02:32:24.378Z,8.67
2022-09-02T02:33:36.108Z,8.61
2022-09-02T02:34:24.877Z,8.61
2022-09-02T02:35:24.856Z,8.61
2022-09-02T02:36:24.843Z,8.64
2022-09-02T02:37:29.791Z,8.67
2022-09-02T02:38:24.807Z,8.65
2022-09-02T02:39:24.537Z,8.67
2022-09-02T02:40:24.451Z,8.6
2022-09-02T02:41:24.510Z,8.53
2022-09-02T02:42:24.502Z,8.49
2022-09-02T02:43:24.692Z,8.6
2022-09-02T02:44:24.733Z,8.54
2022-09-02T02:45:24.462Z,8.57
2022-09-02T02:46:25.100Z,8.52
2022-09-02T02:47:24.694Z,8.52
2022-09-02T02:48:24.675Z,8.47
2022-09-02T02:49:24.150Z,8.52
2022-09-02T02:50:24.400Z,8.47
2022-09-02T02:51:24.382Z,8.44
2022-09-02T02:52:24.622Z,8.43
2022-09-02T02:53:24.846Z,8.34
2022-09-02T02:54:24.085Z,8.36
2022-09-02T02:55:24.597Z,8.43
2022-09-02T02:56:24.313Z,8.32
2022-09-02T02:57:24.307Z,8.34
2022-09-02T02:58:24.283Z,8.44
2022-09-02T02:59:24.278Z,8.42
2022-09-02T03:00:24.265Z,8.34
2022-09-02T03:01:24.234Z,8.34
2022-09-02T03:02:24.958Z,8.32
2022-09-02T03:03:25.161Z,8.36
2022-09-02T03:04:23.956Z,8.39
2022-09-02T03:05:23.944Z,8.24
2022-09-02T03:06:29.204Z,8.19
2022-09-02T03:07:24.431Z,8.32
2022-09-02T03:08:24.410Z,8.32
2022-09-02T03:09:24.146Z,8.26
2022-09-02T03:10:24.143Z,8.17
2022-09-02T03:11:24.125Z,8.17
2022-09-02T03:12:24.102Z,8.26
2022-09-02T03:13:24.334Z,8.17
2022-09-02T03:14:24.343Z,8.22
2022-09-02T03:15:24.073Z,8.19
2022-09-02T03:16:24.541Z,8.29
2022-09-02T03:17:24.039Z,8.21
2022-09-02T03:18:24.276Z,8.17
2022-09-02T03:19:23.762Z,8.26
2022-09-02T03:20:25.853Z,8.25
2022-09-02T03:21:24.246Z,8.1
2022-09-02T03:22:24.230Z,8.21
2022-09-02T03:23:24.252Z,8.26
2022-09-02T03:24:23.951Z,8.24
2022-09-02T03:25:24.688Z,8.31
2022-09-02T03:26:23.668Z,8.22
2022-09-02T03:27:24.165Z,8.21
2022-09-02T03:28:24.148Z,8.07
2022-09-02T03:29:23.627Z,8.16
2022-09-02T03:30:24.121Z,8.24
2022-09-02T03:31:24.148Z,8.09
2022-09-02T03:32:29.727Z,8.03
2022-09-02T03:49:48.668Z,7.96
2022-09-02T03:50:48.190Z,7.88
2022-09-02T03:51:48.427Z,7.83
2022-09-02T03:52:48.411Z,7.77
2022-09-02T03:53:48.390Z,7.8
2022-09-02T03:54:48.123Z,7.8
2022-09-02T03:55:49.055Z,7.85
2022-09-02T03:56:49.393Z,7.82
2022-09-02T03:57:47.821Z,7.75
2022-09-02T03:58:48.066Z,7.73
2022-09-02T03:59:48.052Z,7.74
2022-09-02T04:00:48.288Z,7.75
2022-09-02T04:01:48.453Z,7.8
2022-09-02T04:02:52.391Z,7.73
2022-09-02T04:03:47.992Z,7.71
2022-09-02T04:04:47.972Z,7.64
2022-09-02T04:05:48.215Z,7.63
2022-09-02T04:06:48.209Z,7.58
2022-09-02T04:07:51.545Z,7.59
2022-09-02T04:08:48.175Z,7.67
2022-09-02T04:09:51.472Z,7.68
2022-09-02T04:10:47.889Z,7.59
2022-09-02T04:11:48.138Z,7.58
2022-09-02T04:12:47.857Z,7.63
2022-09-02T04:13:47.844Z,7.63
2022-09-02T04:14:48.085Z,7.64
2022-09-02T04:15:48.413Z,7.61
2022-09-02T04:16:48.060Z,7.59
2022-09-02T04:17:48.043Z,7.58
2022-09-02T04:18:47.775Z,7.61
2022-09-02T04:19:48.020Z,7.54
2022-09-02T04:20:48.055Z,7.54
2022-09-02T04:21:47.732Z,7.52
2022-09-02T04:22:47.721Z,7.52
2022-09-02T04:23:47.705Z,7.52
2022-09-02T04:24:47.691Z,7.51
2022-09-02T04:25:47.933Z,7.54
2022-09-02T04:26:50.144Z,7.59
2022-09-02T04:27:47.909Z,7.51
2022-09-02T04:28:47.382Z,7.49
2022-09-02T04:29:47.625Z,7.52
2022-09-02T04:30:47.867Z,7.55
2022-09-02T04:31:48.099Z,7.51
2022-09-02T04:32:47.585Z,7.48
2022-09-02T04:33:47.820Z,7.49
2022-09-02T04:34:47.554Z,7.54
2022-09-02T04:35:47.792Z,7.47
2022-09-02T04:36:47.528Z,7.52
2022-09-02T04:37:47.268Z,7.54
2022-09-02T04:38:50.066Z,7.54
2022-09-02T04:39:47.485Z,7.58
2022-09-02T04:40:47.748Z,7.61
2022-09-02T04:41:47.730Z,7.54
2022-09-02T04:42:47.443Z,7.67
2022-09-02T04:43:47.432Z,7.67
2022-09-02T04:44:47.668Z,7.59
2022-09-02T04:45:47.342Z,7.63
2022-09-02T04:46:47.616Z,7.59
2022-09-02T04:47:50.423Z,7.59
2022-09-02T04:48:47.116Z,7.63
2022-09-02T04:49:47.603Z,7.64
2022-09-02T04:50:47.592Z,7.73
2022-09-02T04:51:47.574Z,7.67
2022-09-02T04:52:47.558Z,7.67
2022-09-02T04:53:47.319Z,7.63
2022-09-02T04:54:47.547Z,7.74
2022-09-02T04:55:47.525Z,7.73
2022-09-02T04:56:47.505Z,7.75
2022-09-02T04:57:47.236Z,7.78
2022-09-02T04:58:47.480Z,7.75
2022-09-02T04:59:46.955Z,7.78
2022-09-02T05:00:46.939Z,7.86
2022-09-02T05:01:48.196Z,7.8
2022-09-02T05:02:47.226Z,7.8
2022-09-02T05:03:47.156Z,7.77
2022-09-02T05:04:46.893Z,7.82
2022-09-02T05:05:47.387Z,7.77
2022-09-02T05:06:49.219Z,7.8
2022-09-02T05:07:47.100Z,7.85
2022-09-02T05:08:46.829Z,7.88
2022-09-02T05:09:47.074Z,7.96
2022-09-02T05:10:47.060Z,7.93
2022-09-02T05:11:47.310Z,7.93
2022-09-02T05:12:47.286Z,7.98
2022-09-02T05:13:47.274Z,8.07
2022-09-02T05:14:47.053Z,8.03
2022-09-02T05:15:47.211Z,8.06
2022-09-02T05:16:46.976Z,8.04
2022-09-02T05:17:46.963Z,8.13
2022-09-02T05:18:47.203Z,8.11
2022-09-02T05:19:47.195Z,8.22
2022-09-02T05:20:46.920Z,8.06
2022-09-02T05:21:46.925Z,8.1
2022-09-02T05:22:46.641Z,8.19
2022-09-02T05:23:46.886Z,8.24
2022-09-02T05:24:46.619Z,8.26
2022-09-02T05:25:47.112Z,8.24
2022-09-02T05:26:46.869Z,8.31
2022-09-02T05:27:47.086Z,8.32
2022-09-02T05:28:46.815Z,8.32
2022-09-02T05:29:49.775Z,8.29
2022-09-02T05:30:46.728Z,8.32
2022-09-02T05:31:46.774Z,8.32
2022-09-02T05:32:47.020Z,8.28
2022-09-02T05:33:47.020Z,8.42
2022-09-02T05:34:46.996Z,8.42
2022-09-02T05:35:52.270Z,8.47
2022-09-02T05:36:46.712Z,8.49
2022-09-02T05:37:46.696Z,8.49
2022-09-02T05:38:46.685Z,8.5
2022-09-02T05:39:46.868Z,8.52
2022-09-02T05:40:46.607Z,8.6
2022-09-02T05:41:46.904Z,8.64
2022-09-02T05:42:47.476Z,8.67
2022-09-02T05:43:46.616Z,8.69
2022-09-02T05:44:46.642Z,8.62
2022-09-02T05:45:47.020Z,8.71
2022-09-02T05:46:51.413Z,8.67
2022-09-02T05:47:46.972Z,8.74
2022-09-02T05:48:46.809Z,8.71
2022-09-02T05:49:46.536Z,8.76
2022-09-02T05:50:54.894Z,8.71
2022-09-02T05:51:46.775Z,8.86
2022-09-02T05:52:46.245Z,8.85
2022-09-02T05:53:46.746Z,8.85
2022-09-02T05:54:46.473Z,8.89
2022-09-02T05:55:46.721Z,9
2022-09-02T05:56:49.811Z,8.94
2022-09-02T05:57:46.687Z,8.9
2022-09-02T05:58:46.426Z,8.95
2022-09-02T05:59:46.408Z,8.97
2022-09-02T06:00:46.395Z,8.92
2022-09-02T06:01:46.622Z,8.95
2022-09-02T06:02:46.832Z,9.01
2022-09-02T06:03:47.350Z,9.03
2022-09-02T06:04:46.344Z,9.01
2022-09-02T06:05:46.328Z,9.04
2022-09-02T06:06:46.067Z,8.98
2022-09-02T06:07:46.048Z,9.03
2022-09-02T06:08:46.549Z,9.14
2022-09-02T06:09:46.534Z,9.24
2022-09-02T06:10:46.530Z,9.21
2022-09-02T06:11:46.252Z,9.3
2022-09-02T06:12:47.624Z,9.3
2022-09-02T06:13:46.226Z,9.35
2022-09-02T06:14:46.215Z,9.3
2022-09-02T06:15:46.592Z,9.44
2022-09-02T06:16:46.479Z,9.47
2022-09-02T06:17:46.178Z,9.5
2022-09-02T06:18:47.272Z,9.5
2022-09-02T06:19:47.241Z,9.57
2022-09-02T06:20:46.149Z,9.56
2022-09-02T06:21:46.130Z,9.72
2022-09-02T06:22:46.369Z,9.74
2022-09-02T06:23:46.104Z,9.77
2022-09-02T06:24:46.088Z,9.81
2022-09-02T06:25:46.350Z,9.92
2022-09-02T06:26:45.811Z,9.88
2022-09-02T06:27:46.054Z,10
2022-09-02T06:28:46.047Z,10.07
2022-09-02T06:29:46.284Z,9.99
2022-09-02T06:30:46.186Z,9.99
2022-09-02T06:31:46.264Z,10.07
2022-09-02T06:32:52.864Z,10.14
2022-09-02T06:33:46.239Z,10.15
2022-09-02T06:34:46.222Z,10.31
2022-09-02T06:35:45.955Z,10.2
2022-09-02T06:36:45.946Z,10.26
2022-09-02T06:37:45.938Z,10.32
2022-09-02T06:38:49.995Z,10.32
2022-09-02T06:39:46.164Z,10.38
2022-09-02T06:40:46.446Z,10.42
2022-09-02T06:41:46.140Z,10.52
2022-09-02T06:42:46.131Z,10.55
2022-09-02T06:43:48.239Z,10.57
2022-09-02T06:44:46.102Z,10.65
2022-09-02T06:45:46.129Z,10.79
2022-09-02T06:46:45.573Z,10.79
2022-09-02T06:47:45.822Z,10.88
2022-09-02T06:48:46.055Z,10.92
2022-09-02T06:49:45.536Z,10.95
2022-09-02T06:50:45.781Z,11
2022-09-02T06:51:45.765Z,11.12
2022-09-02T06:52:45.757Z,11.12
2022-09-02T06:53:45.741Z,11.33
2022-09-02T06:54:45.478Z,11.34
2022-09-02T06:55:45.721Z,11.38
2022-09-02T06:56:51.744Z,11.56
2022-09-02T06:57:45.697Z,11.68
2022-09-02T06:58:47.663Z,12.08
2022-09-02T06:59:45.421Z,12.31
2022-09-02T07:00:45.671Z,12.73
2022-09-02T07:01:46.429Z,13.31
2022-09-02T07:02:45.898Z,13.78
2022-09-02T07:03:45.374Z,14.11
2022-09-02T07:04:45.883Z,14.27
2022-09-02T07:05:45.629Z,14.59
2022-09-02T07:06:45.855Z,15.34
2022-09-02T07:07:45.355Z,16.06
2022-09-02T07:08:45.326Z,16.52
2022-09-02T07:09:45.830Z,16.99
2022-09-02T07:10:45.570Z,17.3
2022-09-02T07:11:45.813Z,17.65
2022-09-02T07:12:49.291Z,18.21
2022-09-02T07:13:45.792Z,18.68
2022-09-02T07:14:45.534Z,18.86
2022-09-02T07:15:45.302Z,19.02
2022-09-02T07:16:45.787Z,19.02
2022-09-02T07:17:45.759Z,18.94
2022-09-02T07:18:45.756Z,18.61
2022-09-02T07:19:45.231Z,18.34
2022-09-02T07:20:45.484Z,18.01
2022-09-02T07:21:45.468Z,17.57
2022-09-02T07:22:45.633Z,17.24
2022-09-02T07:23:46.047Z,17.07
2022-09-02T07:24:45.444Z,16.69
2022-09-02T07:25:45.693Z,16.45
2022-09-02T07:26:45.433Z,16.34
2022-09-02T07:27:45.418Z,16.32
2022-09-02T07:28:45.154Z,16.29
2022-09-02T07:29:45.656Z,16.32
2022-09-02T07:30:45.551Z,16.27
2022-09-02T07:31:45.394Z,16.3
2022-09-02T07:32:45.380Z,16.29
2022-09-02T07:33:45.368Z,16.29
2022-09-02T07:34:45.619Z,16.14
2022-09-02T07:35:45.610Z,16.02
2022-09-02T07:36:45.599Z,15.98
2022-09-02T07:37:45.339Z,15.92
2022-09-02T07:38:45.335Z,15.74
2022-09-02T07:39:46.816Z,15.65
2022-09-02T07:40:45.725Z,15.58
2022-09-02T07:41:45.046Z,15.65
2022-09-02T07:42:45.488Z,15.63
2022-09-02T07:43:48.279Z,15.63
2022-09-02T07:44:45.293Z,15.63
2022-09-02T07:45:45.381Z,15.59
2022-09-02T07:46:49.066Z,15.63
2022-09-02T07:47:47.054Z,15.62
2022-09-02T07:48:45.513Z,15.71
2022-09-02T07:50:24.198Z,15.75
2022-09-02T07:50:45.243Z,15.73
2022-09-02T07:51:45.482Z,15.88
2022-09-02T07:52:46.526Z,15.89
2022-09-02T07:53:45.211Z,15.99
2022-09-02T07:54:45.463Z,15.93
2022-09-02T07:55:45.453Z,15.96
2022-09-02T07:56:44.936Z,16
2022-09-02T07:57:45.443Z,15.93
2022-09-02T07:58:45.181Z,16.11
2022-09-02T07:59:45.170Z,16.21
2022-09-02T08:00:45.165Z,16.3
2022-09-02T08:01:45.890Z,16.27
2022-09-02T08:02:45.620Z,16.29
2022-09-02T08:03:45.144Z,16.48
2022-09-02T08:04:44.880Z,16.62
2022-09-02T08:05:44.874Z,16.76
2022-09-02T08:06:45.374Z,16.88
2022-09-02T08:07:45.109Z,16.9
2022-09-02T08:08:45.102Z,17.03
2022-09-02T08:09:45.199Z,17.07
2022-09-02T08:10:45.363Z,17.12
2022-09-02T08:11:45.083Z,17.24
2022-09-02T08:12:45.334Z,17.31
2022-09-02T08:13:45.083Z,17.43
2022-09-02T08:14:45.603Z,17.55
2022-09-02T08:15:44.804Z,17.49
2022-09-02T08:16:45.424Z,17.55
2022-09-02T08:17:45.329Z,17.69
2022-09-02T08:18:45.301Z,17.76
2022-09-02T08:19:45.129Z,17.83
2022-09-02T08:20:45.041Z,18.01
2022-09-02T08:21:44.765Z,18.1
2022-09-02T08:22:47.929Z,18.19
2022-09-02T08:23:46.072Z,18.32
2022-09-02T08:24:45.260Z,18.35
2022-09-02T08:25:44.996Z,18.5
2022-09-02T08:26:44.983Z,18.65
2022-09-02T08:27:45.124Z,18.61
2022-09-02T08:28:44.979Z,18.76
2022-09-02T08:29:44.972Z,18.79
2022-09-02T08:30:44.711Z,18.94
2022-09-02T08:31:45.535Z,18.96
2022-09-02T08:32:44.947Z,19.06
2022-09-02T08:33:44.950Z,19.19
2022-09-02T08:34:45.198Z,19.24
2022-09-02T08:35:44.679Z,19.37
2022-09-02T08:36:58.796Z,19.38
2022-09-02T08:37:45.181Z,19.38
2022-09-02T08:38:45.178Z,19.45
2022-09-02T08:39:44.664Z,19.49
2022-09-02T08:40:45.068Z,19.55
2022-09-02T08:41:44.661Z,19.61
2022-09-02T08:42:45.396Z,19.67
2022-09-02T08:43:44.905Z,19.86
2022-09-02T08:44:44.888Z,19.97
2022-09-02T08:45:45.027Z,20.02
2022-09-02T08:46:44.877Z,20.02
2022-09-02T08:47:44.878Z,20.07
2022-09-02T08:48:44.620Z,20.16
2022-09-02T08:49:45.119Z,20.27
2022-09-02T08:50:46.036Z,20.2
2022-09-02T08:51:44.858Z,20.04
2022-09-02T08:52:45.108Z,20.11
2022-09-02T08:53:45.101Z,20.3
2022-09-02T08:54:44.852Z,20.35
2022-09-02T08:55:44.582Z,20.49
2022-09-02T08:56:44.576Z,20.57
2022-09-02T08:57:49.199Z,20.63
2022-09-02T08:58:44.820Z,20.74
2022-09-02T08:59:44.828Z,21.03
2022-09-02T09:00:44.977Z,21.13
2022-09-02T09:01:44.806Z,21.27
2022-09-02T09:02:50.834Z,21.27
2022-09-02T09:03:44.548Z,21.3
2022-09-02T09:04:44.796Z,21.28
2022-09-02T09:05:45.082Z,21.41
2022-09-02T09:06:45.049Z,21.43
2022-09-02T09:07:44.796Z,21.49
2022-09-02T09:08:44.527Z,21.61
2022-09-02T09:09:45.032Z,21.7
2022-09-02T09:10:46.213Z,21.74
2022-09-02T09:11:45.028Z,21.86
2022-09-02T09:12:44.542Z,21.99
2022-09-02T09:13:46.152Z,21.94
2022-09-02T09:14:44.503Z,21.96
2022-09-02T09:15:44.759Z,22.07
2022-09-02T09:16:45.206Z,22.09
2022-09-02T09:17:44.494Z,21.92
2022-09-02T09:18:45.010Z,21.99
2022-09-02T09:19:44.746Z,21.77
2022-09-02T09:20:44.497Z,21.82
2022-09-02T09:21:44.760Z,21.73
2022-09-02T09:22:45.007Z,21.83
2022-09-02T09:23:44.989Z,21.77
2022-09-02T09:24:44.750Z,21.64
2022-09-02T09:25:44.723Z,21.51
2022-09-02T09:26:44.977Z,21.43
2022-09-02T09:27:45.078Z,21.51
2022-09-02T09:28:44.975Z,21.43
2022-09-02T09:29:44.636Z,21.55
2022-09-02T09:30:44.713Z,21.74
2022-09-02T09:31:44.583Z,21.76
2022-09-02T09:32:44.703Z,21.93
2022-09-02T09:33:44.700Z,22.07
2022-09-02T09:34:44.730Z,22.08
2022-09-02T09:35:44.696Z,22.3
2022-09-02T09:36:44.699Z,22.33
2022-09-02T09:37:44.943Z,22.51
2022-09-02T09:38:44.941Z,22.67
2022-09-02T09:39:44.656Z,22.71
2022-09-02T09:40:44.888Z,22.73
2022-09-02T09:41:44.934Z,22.75
2022-09-02T09:42:49.951Z,22.73
2022-09-02T09:43:44.679Z,22.6
2022-09-02T09:44:44.815Z,22.36
2022-09-02T09:45:44.631Z,22.04
2022-09-02T09:46:44.667Z,21.89
2022-09-02T09:47:44.404Z,21.67
2022-09-02T09:48:44.659Z,21.38
2022-09-02T09:49:44.401Z,21.22
2022-09-02T09:50:44.393Z,21
2022-09-02T09:51:54.683Z,20.85
2022-09-02T09:52:44.903Z,20.85
2022-09-02T09:53:44.900Z,20.74
2022-09-02T09:54:44.662Z,20.72
2022-09-02T09:55:44.640Z,20.58
2022-09-02T09:56:44.385Z,20.46
2022-09-02T09:57:47.751Z,20.49
2022-09-02T09:58:44.881Z,20.32
2022-09-02T09:59:44.624Z,20.37
2022-09-02T10:00:44.843Z,20.34
2022-09-02T10:01:44.989Z,20.32
2022-09-02T10:02:45.048Z,20.23
2022-09-02T10:03:44.878Z,20.46
2022-09-02T10:04:48.194Z,20.6
2022-09-02T10:05:44.911Z,20.81
2022-09-02T10:06:44.860Z,20.98
2022-09-02T10:07:47.493Z,21.21
2022-09-02T10:08:44.604Z,21.27
2022-09-02T10:09:44.340Z,21.52
2022-09-02T10:10:44.846Z,21.61
2022-09-02T10:11:44.601Z,21.74
2022-09-02T10:12:44.957Z,21.73
2022-09-02T10:13:44.322Z,21.62
2022-09-02T10:14:44.578Z,21.58
2022-09-02T10:15:44.319Z,21.4
2022-09-02T10:16:44.681Z,21.4
2022-09-02T10:17:44.568Z,21.27
2022-09-02T10:18:49.175Z,21.27
2022-09-02T10:19:44.307Z,21.15
2022-09-02T10:21:18.014Z,21.08
2022-09-02T10:21:49.275Z,21.06
2022-09-02T10:23:05.072Z,21.21
2022-09-02T10:23:44.291Z,21.15
2022-09-02T10:24:44.285Z,21.31
2022-09-02T10:25:44.799Z,21.46
2022-09-02T10:26:44.536Z,21.48
2022-09-02T10:27:44.321Z,21.77
2022-09-02T10:28:44.272Z,21.73
2022-09-02T10:29:44.784Z,21.82
2022-09-02T10:30:44.526Z,21.82
2022-09-02T10:31:44.759Z,21.78
2022-09-02T10:32:44.261Z,21.85
2022-09-02T10:33:44.776Z,21.7
2022-09-02T10:34:44.668Z,21.73
2022-09-02T10:35:44.516Z,21.66
2022-09-02T10:36:45.254Z,21.49
2022-09-02T10:37:44.507Z,21.53
2022-09-02T10:38:44.762Z,21.41
2022-09-02T10:39:44.765Z,21.34
2022-09-02T10:40:44.941Z,21.22
2022-09-02T10:42:45.139Z,21.13
2022-09-02T10:43:44.232Z,21.11
2022-09-02T10:44:44.518Z,21.01
2022-09-02T10:45:44.482Z,21.11
2022-09-02T10:46:44.548Z,21.13
2022-09-02T10:47:44.971Z,21.21
2022-09-02T10:48:44.220Z,21.15
2022-09-02T10:49:44.468Z,21.09
2022-09-02T10:50:48.162Z,21.16
2022-09-02T10:51:44.465Z,21.09
2022-09-02T10:52:44.460Z,21.19
2022-09-02T10:53:44.454Z,21.19
2022-09-02T10:54:44.455Z,21.16
2022-09-02T10:55:44.448Z,21.18
2022-09-02T10:56:44.663Z,21.16
2022-09-02T10:57:44.445Z,21.06
2022-09-02T10:58:44.441Z,21.08
2022-09-02T10:59:44.447Z,21.01
2022-09-02T11:00:44.598Z,21.11
2022-09-02T11:01:47.032Z,21.22
2022-09-02T11:02:44.436Z,21.41
2022-09-02T11:03:47.037Z,21.53
2022-09-02T11:04:44.175Z,21.43
2022-09-02T11:05:44.421Z,21.28
2022-09-02T11:07:06.246Z,21.15
2022-09-02T11:07:44.192Z,21.15
2022-09-02T11:08:44.159Z,21.13
2022-09-02T11:09:44.154Z,21.04
2022-09-02T11:10:44.153Z,21
2022-09-02T11:11:44.403Z,20.79
2022-09-02T11:12:44.149Z,20.74
2022-09-02T11:13:44.655Z,20.66
2022-09-02T11:14:47.464Z,20.61
2022-09-02T11:15:47.201Z,20.44
2022-09-02T11:16:44.711Z,20.29
2022-09-02T11:17:44.132Z,20.26
2022-09-02T11:18:47.243Z,20.26
2022-09-02T11:19:45.169Z,20.15
2022-09-02T11:20:44.630Z,20.15
2022-09-02T11:21:44.416Z,20.07
2022-09-02T11:22:44.968Z,20.08
2022-09-02T11:23:44.581Z,20.02
2022-09-02T11:24:49.302Z,20.05
2022-09-02T11:25:44.146Z,20.08
2022-09-02T11:26:44.350Z,20.07
2022-09-02T11:27:47.604Z,20.08
2022-09-02T11:28:44.233Z,20.15
2022-09-02T11:29:44.677Z,20.02
2022-09-02T11:30:44.641Z,20.05
2022-09-02T11:31:44.610Z,20.01
2022-09-02T11:32:44.524Z,19.98
2022-09-02T11:33:44.590Z,20.02
2022-09-02T11:34:44.596Z,20.08
2022-09-02T11:35:44.341Z,20.05
2022-09-02T11:36:44.059Z,20.04
2022-09-02T11:37:44.771Z,20.05
2022-09-02T11:38:44.309Z,20.04
2022-09-02T11:41:43.576Z,19.9
2022-09-02T11:42:42.566Z,19.83
2022-09-02T11:43:42.344Z,19.8
2022-09-02T11:44:43.698Z,19.78
2022-09-02T11:45:45.667Z,19.71
2022-09-02T11:46:43.124Z,19.65
2022-09-02T11:47:50.479Z,19.57
2022-09-02T11:48:42.557Z,19.53
2022-09-02T11:49:42.521Z,19.61
2022-09-02T11:50:44.291Z,19.53
2022-09-02T11:51:42.770Z,19.53
2022-09-02T11:52:42.769Z,19.52
2022-09-02T11:53:43.136Z,19.37
2022-09-02T11:54:43.434Z,19.34
2022-09-02T11:55:43.149Z,19.24
2022-09-02T11:56:42.512Z,19.3
2022-09-02T11:57:42.747Z,19.35
2022-09-02T11:58:42.483Z,19.37
2022-09-02T11:59:42.227Z,19.45
2022-09-02T12:00:43.331Z,19.49
2022-09-02T12:01:49.175Z,19.45
2022-09-02T12:02:42.723Z,19.45
2022-09-02T12:05:01.699Z,19.45
2022-09-02T12:05:14.294Z,19.4
2022-09-02T12:06:14.030Z,19.53
2022-09-02T12:07:15.566Z,19.55
2022-09-02T12:08:13.401Z,19.46
2022-09-02T12:09:13.136Z,19.71
2022-09-02T12:10:13.700Z,19.85
2022-09-02T12:11:13.435Z,19.98
2022-09-02T12:12:13.565Z,19.9
2022-09-02T12:13:14.504Z,19.89
2022-09-02T12:14:14.235Z,20
2022-09-02T12:15:13.621Z,19.92
2022-09-02T12:16:13.848Z,19.86
2022-09-02T12:17:14.297Z,19.86
2022-09-02T12:18:13.093Z,19.83
2022-09-02T12:19:13.850Z,19.67
2022-09-02T12:20:13.350Z,19.71
2022-09-02T12:21:25.968Z,19.65
2022-09-02T12:22:13.337Z,19.67
2022-09-02T12:23:13.398Z,19.57
2022-09-02T12:24:13.327Z,19.6
2022-09-02T12:25:13.330Z,19.68
2022-09-02T12:26:18.223Z,19.64
2022-09-02T12:27:13.061Z,19.78
2022-09-02T12:28:21.513Z,19.87
2022-09-02T12:29:14.250Z,19.89
2022-09-02T12:30:13.161Z,19.95
2022-09-02T12:31:13.919Z,20.02
2022-09-02T12:32:13.296Z,20.1
2022-09-02T12:33:13.407Z,20.07
2022-09-02T12:34:15.588Z,20.04
2022-09-02T12:35:13.637Z,20.04
2022-09-02T12:36:13.275Z,20.2
2022-09-02T12:37:14.012Z,20.12
2022-09-02T12:38:13.213Z,20.23
2022-09-02T12:39:14.566Z,20.34
2022-09-02T12:40:17.558Z,20.27
2022-09-02T12:41:17.924Z,20.4
2022-09-02T12:42:13.693Z,20.4
2022-09-02T12:43:13.261Z,20.41
2022-09-02T12:44:16.262Z,20.4
2022-09-02T12:45:14.085Z,20.51
2022-09-02T12:46:13.405Z,20.37
2022-09-02T12:47:13.491Z,20.49
2022-09-02T12:48:13.458Z,20.42
2022-09-02T12:49:13.222Z,20.48
2022-09-02T12:50:13.693Z,20.53
2022-09-02T12:51:13.468Z,20.56
2022-09-02T12:52:12.955Z,20.68
2022-09-02T12:53:13.996Z,20.88
2022-09-02T12:54:13.210Z,21.12
2022-09-02T12:55:12.944Z,21.19
2022-09-02T12:56:15.131Z,21.48
2022-09-02T12:57:13.193Z,21.53
2022-09-02T12:58:12.938Z,21.73
2022-09-02T12:59:13.194Z,21.85
2022-09-02T13:00:13.200Z,21.78
2022-09-02T13:01:13.283Z,21.78
2022-09-02T13:02:13.186Z,21.61
2022-09-02T13:03:13.176Z,21.46
2022-09-02T13:04:13.202Z,21.4
2022-09-02T13:05:12.914Z,21.31
2022-09-02T13:06:13.417Z,21.28
2022-09-02T13:07:13.416Z,21.16
2022-09-02T13:08:12.904Z,21.15
2022-09-02T13:09:13.384Z,21.03
2022-09-02T13:10:13.187Z,20.98
2022-09-02T13:11:13.149Z,21
2022-09-02T13:12:13.404Z,20.86
2022-09-02T13:13:13.142Z,20.94
2022-09-02T13:14:13.155Z,20.86
2022-09-02T13:15:13.135Z,20.85
2022-09-02T13:16:23.063Z,20.98
2022-09-02T13:17:45.647Z,20.91
2022-09-02T13:18:13.422Z,20.9
2022-09-02T13:19:13.964Z,21.09
2022-09-02T13:20:13.813Z,21.22
2022-09-02T13:21:13.118Z,21.25
2022-09-02T13:22:15.207Z,21.38
2022-09-02T13:23:15.822Z,21.51
2022-09-02T13:24:13.791Z,21.45
2022-09-02T13:25:15.860Z,21.49
2022-09-02T13:26:23.036Z,21.58
2022-09-02T13:27:16.305Z,21.76
2022-09-02T13:28:14.693Z,21.77
2022-09-02T13:29:13.130Z,21.86